Peace River Airport
CYPE : now visible

Airfield :











YOU CAN JOIN US ON...

 
LOGIN :

Register | Disclaimer

   EN    FR    IT 

 









Legend :    VFR   Marginal VFR   IFR   Intensive IFR   Very Intensive IFR
Visi :
Ceiling :
>= 8 km
>= 3000ft
5 to 8 km
1000 to 3000 ft
1500m to 5 km
500 to 1000 ft
800 to 1500m
200 to 500 ft
< 800m
< 200 ft
Symbols :   Thunderstorms  Fog  Heavy snow  Heavy precipitations  Wind > 20 kt







- Airport Elevation : 1873 ft
- IATA code : YPE


CYPE - Peace River

CURRENT METAR :
  • 260200Z 31007KT 15SM SCT070 BKN150 OVC210 13/10 A2993 RMK AC3AC3CI2 SLP152 DENSITY ALT 2100FT

EXPIRED METARs :
  • 260156Z 31008KT 15SM SCT070 BKN150 OVC210 13/10 A2993 RMK AC3AC3CI2 SLP153 DENSITY ALT 2100FT
  • 260100Z 31009KT 15SM -SHRA SCT035CB BKN095 OVC210 12/10 A2992 RMK CB3AC4CI1 SLP148 DENSITY ALT 2000FT
  • 260029Z 34014G28KT 290V350 12SM -SHRA BKN035CB BKN070 OVC210 12/09 A2992 RMK CB5AC2CI1 VIS SE-S 5 PRESRR SLP146 DENSITY ALT 2000FT
  • 260020Z 31022G30KT 230V350 3SM +SHRA BKN035CB BKN070 OVC210 13/09 A2992 RMK CB6AC1CI1 VIS NE-SE 15 PRESRR SLP146 DENSITY ALT 2100FT

TAF TAF CYPE
Valid from the 26 at 01:00 until the 26 at 13:00 UTC


260038Z 2601/2613 31012KT P6SM SCT040 BKN080
TEMPO 2601/2603 VRB15G25KT 5SM TSRA BKN040CB BKN080
FM260300 30006KT P6SM SCT080
FM260900 29006KT P6SM SCT040 RMK NXT FCST BY 260700Z
No reported NOTAMs for that airfield.



MET'MAP, your aeronautical weather chart ! - Copyright ORBIFLY December 2007 - Disclaimer

ORBIFLY MET'MAP TEAM :

Programming & Development : Alexandra Zaïnal
Concept & Development : Baudouin d'Aumeries
Co-Development & Prog : Marc-Olivier Méhu
Technical & hardware support : Manuel Goepfert

Contact : metmap@orbifly.com




SOURCES & CREDITS :

   NOAA       Earth
Advisory